createdAt,value
2018-03-24T00:00:42.178Z,6.80
2018-03-24T00:03:11.577Z,6.80
2018-03-24T00:05:41.343Z,6.80
2018-03-24T00:08:10.304Z,6.80
2018-03-24T00:10:40.007Z,6.80
2018-03-24T00:13:09.807Z,6.80
2018-03-24T00:15:39.561Z,6.80
2018-03-24T00:18:08.504Z,6.80
2018-03-24T00:20:38.245Z,6.80
2018-03-24T00:23:07.258Z,6.80
2018-03-24T00:25:36.194Z,6.70
2018-03-24T00:28:05.921Z,6.70
2018-03-24T00:30:35.794Z,6.80
2018-03-24T00:33:04.742Z,6.70
2018-03-24T00:35:34.165Z,6.80
2018-03-24T00:38:03.512Z,6.80
2018-03-24T00:40:33.259Z,6.70
2018-03-24T00:43:02.223Z,6.70
2018-03-24T00:45:31.587Z,6.70
2018-03-24T00:48:00.543Z,6.80
2018-03-24T00:50:29.546Z,6.80
2018-03-24T00:52:58.486Z,6.80
2018-03-24T00:55:27.469Z,6.80
2018-03-24T00:57:56.414Z,6.80
2018-03-24T01:00:25.442Z,6.70
2018-03-24T01:02:54.391Z,6.70
2018-03-24T01:05:23.827Z,6.70
2018-03-24T01:07:53.743Z,6.70
2018-03-24T01:10:23.474Z,6.70
2018-03-24T01:12:52.504Z,6.70
2018-03-24T01:15:21.613Z,6.70
2018-03-24T01:17:50.601Z,6.70
2018-03-24T01:20:20.311Z,6.70
2018-03-24T01:22:49.668Z,6.70
2018-03-24T01:25:19.028Z,6.70
2018-03-24T01:27:48.410Z,6.70
2018-03-24T01:30:17.768Z,6.60
2018-03-24T01:32:46.750Z,6.70
2018-03-24T01:35:16.480Z,6.60
2018-03-24T01:37:46.231Z,6.60
2018-03-24T01:40:15.172Z,6.70
2018-03-24T01:42:44.947Z,6.70
2018-03-24T01:45:13.913Z,6.70
2018-03-24T01:47:43.327Z,6.60
2018-03-24T01:50:12.359Z,6.60
2018-03-24T01:52:41.301Z,6.60
2018-03-24T01:55:10.751Z,6.60
2018-03-24T01:57:40.097Z,6.50
2018-03-24T02:00:09.115Z,6.50
2018-03-24T02:02:38.462Z,6.50
2018-03-24T02:05:07.448Z,6.40
2018-03-24T02:07:36.401Z,6.40
2018-03-24T02:10:06.229Z,6.40
2018-03-24T02:12:35.673Z,6.40
2018-03-24T02:15:04.648Z,6.40
2018-03-24T02:17:33.595Z,6.40
2018-03-24T02:20:02.945Z,6.30
2018-03-24T02:22:31.892Z,6.40
2018-03-24T02:25:15.921Z,6.40
2018-03-24T02:27:45.668Z,6.40
2018-03-24T02:30:15.022Z,6.40
2018-03-24T02:32:44.772Z,6.30
2018-03-24T02:35:13.707Z,6.30
2018-03-24T02:37:43.417Z,6.30
2018-03-24T02:40:13.171Z,6.20
2018-03-24T02:42:42.169Z,6.20
2018-03-24T02:45:11.894Z,6.20
2018-03-24T02:47:41.636Z,6.20
2018-03-24T02:50:10.633Z,6.10
2018-03-24T02:52:40.406Z,6.20
2018-03-24T02:55:09.357Z,5.30
2018-03-24T02:57:38.328Z,6.20
2018-03-24T03:00:08.054Z,6.20
2018-03-24T03:02:37.028Z,6.20
2018-03-24T03:05:06.442Z,6.10
2018-03-24T03:07:36.195Z,6.10
2018-03-24T03:10:05.520Z,6.10
2018-03-24T03:12:34.510Z,6.10
2018-03-24T03:15:03.661Z,6.10
2018-03-24T03:17:32.643Z,6.10
2018-03-24T03:20:02.362Z,6.00
2018-03-24T03:22:31.336Z,6.00
2018-03-24T03:25:00.335Z,6.00
2018-03-24T03:27:29.271Z,6.00
2018-03-24T03:29:58.650Z,6.00
2018-03-24T03:32:28.446Z,6.00
2018-03-24T03:34:57.524Z,6.00
2018-03-24T03:37:26.509Z,6.00
2018-03-24T03:39:56.248Z,5.90
2018-03-24T03:42:25.589Z,5.90
2018-03-24T03:44:54.546Z,6.00
2018-03-24T03:47:23.572Z,6.00
2018-03-24T03:49:52.527Z,6.00
2018-03-24T03:52:21.523Z,6.00
2018-03-24T03:54:50.887Z,6.00
2018-03-24T03:57:20.604Z,5.90
2018-03-24T03:59:50.406Z,6.00
2018-03-24T04:02:20.128Z,6.00
2018-03-24T04:04:49.888Z,6.00
2018-03-24T04:07:19.652Z,6.00
2018-03-24T04:09:49.480Z,6.00
2018-03-24T04:12:18.422Z,6.00
2018-03-24T04:14:47.932Z,6.10
2018-03-24T04:17:17.725Z,6.00
2018-03-24T04:19:46.696Z,6.00
2018-03-24T04:22:15.653Z,6.00
2018-03-24T04:24:44.995Z,6.00
2018-03-24T04:27:14.368Z,6.00
2018-03-24T04:29:43.750Z,5.90
2018-03-24T04:32:13.525Z,5.90
2018-03-24T04:34:42.521Z,5.90
2018-03-24T04:37:11.946Z,5.90
2018-03-24T04:39:41.671Z,6.00
2018-03-24T04:42:11.045Z,5.90
2018-03-24T04:44:40.422Z,5.90
2018-03-24T04:47:09.384Z,5.90
2018-03-24T04:49:39.131Z,5.90
2018-03-24T04:52:08.520Z,5.90
2018-03-24T04:54:37.557Z,5.90
2018-03-24T04:57:07.288Z,5.90
2018-03-24T04:59:36.667Z,5.40
2018-03-24T05:02:06.030Z,5.90
2018-03-24T05:04:35.404Z,6.00
2018-03-24T05:07:04.354Z,6.00
2018-03-24T05:09:33.802Z,6.00
2018-03-24T05:12:02.746Z,6.00
2018-03-24T05:14:31.741Z,5.90
2018-03-24T05:17:00.683Z,5.90
2018-03-24T05:19:30.063Z,6.00
2018-03-24T05:21:59.417Z,5.90
2018-03-24T05:24:28.397Z,5.90
2018-03-24T05:26:57.350Z,5.90
2018-03-24T05:29:26.325Z,5.90
2018-03-24T05:31:55.717Z,5.90
2018-03-24T05:34:25.444Z,5.90
2018-03-24T05:36:55.190Z,5.90
2018-03-24T05:39:24.521Z,5.90
2018-03-24T05:41:53.634Z,5.90
2018-03-24T05:44:23.338Z,5.90
2018-03-24T05:46:52.340Z,5.90
2018-03-24T05:49:22.099Z,5.90
2018-03-24T05:51:51.097Z,6.00
2018-03-24T05:54:20.468Z,6.00
2018-03-24T05:56:50.435Z,6.00
2018-03-24T05:59:19.787Z,6.10
2018-03-24T06:01:48.757Z,6.20
2018-03-24T06:04:18.577Z,6.20
2018-03-24T06:06:47.585Z,6.20
2018-03-24T06:09:16.564Z,6.10
2018-03-24T06:11:45.524Z,6.20
2018-03-24T06:14:14.482Z,6.20
2018-03-24T06:16:43.624Z,6.20
2018-03-24T06:19:13.396Z,8.90
2018-03-24T06:21:42.351Z,6.30
2018-03-24T06:24:11.333Z,6.40
2018-03-24T06:26:41.159Z,6.40
2018-03-24T06:29:10.527Z,6.50
2018-03-24T06:45:01.255Z,6.80
2018-03-24T06:47:30.213Z,6.90
2018-03-24T06:49:59.923Z,7.00
2018-03-24T06:52:29.981Z,7.10
2018-03-24T06:54:58.948Z,7.20
2018-03-24T06:57:28.745Z,7.30
2018-03-24T06:59:58.206Z,7.40
2018-03-24T07:02:27.167Z,7.40
2018-03-24T07:04:56.555Z,7.60
2018-03-24T07:07:25.565Z,7.50
2018-03-24T07:09:54.522Z,7.50
2018-03-24T07:12:24.416Z,7.50
2018-03-24T07:14:53.402Z,7.50
2018-03-24T07:17:22.770Z,7.50
2018-03-24T07:19:53.669Z,7.50
2018-03-24T07:22:23.405Z,7.40
2018-03-24T07:24:52.825Z,7.40
2018-03-24T07:27:22.620Z,7.30
2018-03-24T07:29:51.621Z,7.30
2018-03-24T07:32:20.802Z,7.30
2018-03-24T07:34:50.536Z,7.40
2018-03-24T07:37:19.598Z,7.30
2018-03-24T07:39:48.582Z,7.30
2018-03-24T07:42:17.643Z,7.30
2018-03-24T07:44:49.417Z,7.40
2018-03-24T07:47:19.478Z,7.50
2018-03-24T07:49:48.795Z,7.60
2018-03-24T07:52:20.332Z,7.60
2018-03-24T07:54:50.316Z,7.60
2018-03-24T07:57:19.814Z,7.60
2018-03-24T07:59:49.261Z,7.70
2018-03-24T08:02:18.976Z,7.70
2018-03-24T08:04:48.727Z,7.80
2018-03-24T08:07:18.190Z,7.90
2018-03-24T08:09:48.799Z,8.00
2018-03-24T08:12:18.556Z,8.00
2018-03-24T08:14:48.219Z,8.10
2018-03-24T08:17:19.580Z,8.00
2018-03-24T08:19:49.200Z,8.20
2018-03-24T08:22:19.668Z,8.30
2018-03-24T08:24:48.705Z,8.30
2018-03-24T08:27:18.516Z,8.30
2018-03-24T08:29:48.399Z,8.20
2018-03-24T08:32:17.626Z,8.20
2018-03-24T08:34:47.283Z,8.10
2018-03-24T08:37:17.337Z,8.30
2018-03-24T08:39:49.787Z,8.50
2018-03-24T08:42:18.889Z,8.40
2018-03-24T08:44:49.419Z,8.40
2018-03-24T08:47:18.846Z,8.60
2018-03-24T08:49:50.477Z,8.70
2018-03-24T08:52:19.438Z,8.90
2018-03-24T08:54:48.497Z,8.90
2018-03-24T09:03:16.066Z,9.40
2018-03-24T09:05:44.802Z,9.50
2018-03-24T09:08:14.925Z,9.40
2018-03-24T09:10:44.660Z,9.40
2018-03-24T09:13:13.627Z,9.50
2018-03-24T09:15:43.401Z,9.50
2018-03-24T09:18:12.785Z,9.60
2018-03-24T09:20:43.274Z,9.60
2018-03-24T09:23:12.251Z,9.50
2018-03-24T09:25:41.653Z,9.90
2018-03-24T09:28:10.617Z,10.20
2018-03-24T09:30:40.377Z,10.60
2018-03-24T09:33:09.414Z,10.60
2018-03-24T09:35:38.847Z,10.70
2018-03-24T09:38:08.623Z,10.60
2018-03-24T09:40:38.452Z,10.70
2018-03-24T09:43:08.218Z,10.90
2018-03-24T09:45:37.570Z,10.50
2018-03-24T09:48:06.534Z,10.30
2018-03-24T09:50:36.504Z,10.40
2018-03-24T09:53:05.853Z,10.50
2018-03-24T09:55:35.600Z,10.50
2018-03-24T09:58:05.329Z,10.20
2018-03-24T10:00:34.672Z,10.10
2018-03-24T10:03:03.725Z,10.30
2018-03-24T10:05:32.695Z,10.30
2018-03-24T10:08:02.403Z,10.50
2018-03-24T10:10:34.954Z,10.60
2018-03-24T10:13:04.669Z,10.70
2018-03-24T10:15:34.475Z,11.00
2018-03-24T10:18:03.844Z,11.40
2018-03-24T10:20:43.257Z,11.70
2018-03-24T10:23:28.610Z,12.10
2018-03-24T10:25:58.011Z,12.00
2018-03-24T10:28:27.811Z,11.70
2018-03-24T10:30:57.527Z,11.60
2018-03-24T10:33:27.297Z,11.50
2018-03-24T10:35:58.372Z,11.70
2018-03-24T10:38:28.422Z,11.70
2018-03-24T10:40:58.621Z,11.50
2018-03-24T10:43:33.908Z,11.20
2018-03-24T10:46:02.926Z,11.20
2018-03-24T10:48:31.910Z,11.40
2018-03-24T10:51:01.670Z,12.00
2018-03-24T10:53:30.673Z,12.30
2018-03-24T10:56:00.572Z,12.30
2018-03-24T10:58:29.745Z,12.20
2018-03-24T11:01:03.468Z,11.80
2018-03-24T11:03:32.470Z,11.70
2018-03-24T11:06:03.628Z,11.90
2018-03-24T11:08:33.468Z,11.90
2018-03-24T11:11:02.500Z,12.40
2018-03-24T11:13:31.547Z,13.20
2018-03-24T11:16:00.515Z,13.70
2018-03-24T11:18:29.500Z,13.70
2018-03-24T11:20:58.489Z,13.70
2018-03-24T11:23:27.567Z,13.60
2018-03-24T11:25:56.937Z,13.80
2018-03-24T11:28:26.629Z,14.00
2018-03-24T11:30:55.616Z,14.20
2018-03-24T11:33:24.711Z,14.30
2018-03-24T11:35:53.675Z,14.30
2018-03-24T11:38:23.557Z,14.10
2018-03-24T11:40:52.547Z,13.30
2018-03-24T11:43:21.490Z,13.00
2018-03-24T11:45:50.945Z,13.10
2018-03-24T11:48:20.667Z,13.10
2018-03-24T11:50:50.484Z,12.70
2018-03-24T12:06:42.334Z,13.10
2018-03-24T12:09:12.592Z,13.20
2018-03-24T12:11:42.061Z,13.00
2018-03-24T12:14:11.926Z,12.90
2018-03-24T12:16:41.280Z,12.80
2018-03-24T12:19:12.840Z,12.60
2018-03-24T12:21:41.822Z,12.70
2018-03-24T12:24:12.157Z,13.20
2018-03-24T12:26:41.560Z,13.60
2018-03-24T12:29:11.402Z,14.20
2018-03-24T12:31:40.768Z,14.50
2018-03-24T12:34:10.483Z,14.70
2018-03-24T12:36:39.473Z,14.80
2018-03-24T12:39:09.522Z,15.00
2018-03-24T12:41:39.593Z,15.10
2018-03-24T12:44:09.435Z,15.50
2018-03-24T12:46:38.446Z,15.40
2018-03-24T12:49:09.455Z,15.30
2018-03-24T12:51:39.797Z,15.00
2018-03-24T12:54:10.492Z,14.40
2018-03-24T12:56:40.224Z,14.10
2018-03-24T12:59:11.193Z,14.00
2018-03-24T13:01:41.923Z,14.10
2018-03-24T13:04:13.902Z,14.10
2018-03-24T13:06:44.779Z,14.10
2018-03-24T13:09:14.966Z,15.00
2018-03-24T13:11:44.956Z,15.50
2018-03-24T13:14:14.725Z,15.60
2018-03-24T13:16:44.631Z,15.20
2018-03-24T13:19:14.585Z,15.10
2018-03-24T13:21:44.655Z,15.20
2018-03-24T13:24:13.787Z,15.20
2018-03-24T13:26:43.691Z,14.90
2018-03-24T13:29:12.815Z,14.40
2018-03-24T13:31:44.047Z,14.00
2018-03-24T13:34:13.640Z,13.60
2018-03-24T13:36:44.154Z,13.50
2018-03-24T13:39:14.743Z,13.90
2018-03-24T13:41:44.493Z,15.80
2018-03-24T13:44:13.519Z,17.20
2018-03-24T13:46:43.237Z,18.00
2018-03-24T13:49:12.578Z,17.90
2018-03-24T13:51:42.329Z,17.40
2018-03-24T13:54:11.695Z,16.70
2018-03-24T13:56:40.706Z,16.10
2018-03-24T13:59:09.731Z,15.30
2018-03-24T14:01:39.479Z,14.80
2018-03-24T14:04:08.452Z,14.40
2018-03-24T14:06:37.408Z,14.10
2018-03-24T14:09:06.378Z,13.70
2018-03-24T14:11:35.453Z,13.40
2018-03-24T14:14:04.837Z,13.20
2018-03-24T14:16:33.909Z,13.00
2018-03-24T14:19:03.608Z,12.70
2018-03-24T14:21:34.056Z,12.50
2018-03-24T14:24:03.387Z,12.50
2018-03-24T14:26:32.394Z,12.50
2018-03-24T14:29:01.788Z,12.40
2018-03-24T14:31:32.333Z,12.30
2018-03-24T14:34:01.691Z,12.10
2018-03-24T14:36:31.455Z,12.10
2018-03-24T14:39:00.805Z,12.10
2018-03-24T14:41:30.597Z,12.00
2018-03-24T14:44:00.329Z,11.90
2018-03-24T14:46:29.376Z,11.90
2018-03-24T14:49:00.025Z,11.90
2018-03-24T14:51:29.456Z,11.90
2018-03-24T14:53:58.433Z,11.80
2018-03-24T14:56:27.479Z,11.90
2018-03-24T14:58:56.458Z,11.90
2018-03-24T15:01:25.853Z,12.00
2018-03-24T15:03:55.669Z,12.00
2018-03-24T15:06:24.608Z,11.90
2018-03-24T15:08:54.371Z,11.80
2018-03-24T15:11:23.343Z,11.80
2018-03-24T15:13:53.470Z,11.80
2018-03-24T15:16:22.440Z,11.70
2018-03-24T15:18:52.196Z,11.60
2018-03-24T15:21:21.611Z,11.60
2018-03-24T15:23:51.112Z,11.60
2018-03-24T15:26:20.229Z,11.60
2018-03-24T15:29:01.533Z,11.50
2018-03-24T15:31:42.903Z,11.50
2018-03-24T15:34:24.458Z,11.40
2018-03-24T15:36:53.414Z,11.40
2018-03-24T15:39:23.718Z,11.40
2018-03-24T15:41:53.064Z,11.40
2018-03-24T15:44:22.828Z,11.40
2018-03-24T15:46:53.137Z,11.50
2018-03-24T15:49:22.909Z,11.50
2018-03-24T15:51:52.662Z,11.50
2018-03-24T15:54:22.093Z,11.50
2018-03-24T15:56:52.055Z,11.40
2018-03-24T15:59:22.095Z,11.40
2018-03-24T16:01:52.370Z,11.40
2018-03-24T16:04:24.574Z,11.40
2018-03-24T16:06:53.663Z,11.40
2018-03-24T16:09:23.491Z,11.30
2018-03-24T16:11:52.933Z,11.30
2018-03-24T16:14:22.766Z,11.20
2018-03-24T16:16:52.637Z,11.10
2018-03-24T16:19:22.868Z,11.10
2018-03-24T16:21:54.021Z,11.10
2018-03-24T16:24:23.062Z,11.00
2018-03-24T16:26:54.975Z,10.90
2018-03-24T16:29:24.454Z,10.90
2018-03-24T16:31:56.313Z,10.80
2018-03-24T16:34:25.902Z,10.80
2018-03-24T16:36:55.938Z,10.80
2018-03-24T16:39:26.289Z,10.80
2018-03-24T16:41:56.104Z,10.80
2018-03-24T16:44:26.565Z,10.70
2018-03-24T16:46:56.560Z,10.70
2018-03-24T16:49:26.937Z,10.70
2018-03-24T16:51:57.367Z,10.70
2018-03-24T16:54:27.311Z,10.60
2018-03-24T16:56:57.923Z,10.70
2018-03-24T16:59:28.740Z,10.60
2018-03-24T17:02:00.255Z,10.50
2018-03-24T17:04:29.700Z,10.50
2018-03-24T17:06:58.751Z,11.30
2018-03-24T17:09:28.538Z,10.50
2018-03-24T17:11:59.484Z,10.40
2018-03-24T17:14:30.201Z,10.40
2018-03-24T17:16:59.814Z,10.30
2018-03-24T17:19:30.822Z,10.30
2018-03-24T17:22:00.601Z,10.40
2018-03-24T17:24:31.321Z,10.30
2018-03-24T17:27:01.133Z,12.90
2018-03-24T17:29:31.844Z,10.30
2018-03-24T17:32:00.836Z,10.20
2018-03-24T17:34:31.508Z,10.20
2018-03-24T17:37:01.374Z,10.20
2018-03-24T17:39:33.025Z,10.10
2018-03-24T17:42:03.287Z,10.20
2018-03-24T17:44:32.829Z,10.10
2018-03-24T17:47:02.481Z,10.10
2018-03-24T17:49:33.315Z,10.10
2018-03-24T17:52:02.299Z,10.00
2018-03-24T17:54:31.779Z,10.00
2018-03-24T17:57:01.542Z,10.00
2018-03-24T17:59:30.940Z,10.00
2018-03-24T18:02:00.664Z,10.00
2018-03-24T18:04:29.780Z,10.00
2018-03-24T18:06:59.516Z,9.90
2018-03-24T18:09:28.996Z,9.90
2018-03-24T18:11:58.770Z,9.90
2018-03-24T18:14:27.761Z,9.80
2018-03-24T18:16:56.811Z,9.80
2018-03-24T18:19:26.557Z,9.80
2018-03-24T18:21:55.982Z,9.80
2018-03-24T18:24:25.536Z,9.80
2018-03-24T18:26:55.253Z,9.80
2018-03-24T18:29:24.320Z,9.70
2018-03-24T18:31:53.677Z,9.70
2018-03-24T18:34:22.691Z,9.60
2018-03-24T18:36:51.672Z,9.60
2018-03-24T18:39:21.783Z,9.60
2018-03-24T18:41:50.778Z,9.60
2018-03-24T18:44:21.290Z,9.60
2018-03-24T18:46:50.346Z,9.60
2018-03-24T18:49:20.812Z,9.50
2018-03-24T18:51:50.643Z,9.60
2018-03-24T18:54:20.481Z,9.60
2018-03-24T18:56:49.463Z,9.50
2018-03-24T18:59:18.466Z,9.50
2018-03-24T19:01:47.519Z,9.50
2018-03-24T19:04:18.704Z,9.40
2018-03-24T19:06:49.178Z,9.40
2018-03-24T19:09:18.986Z,9.30
2018-03-24T19:11:48.056Z,9.30
2018-03-24T19:14:17.496Z,9.30
2018-03-24T19:16:46.516Z,9.30
2018-03-24T19:19:15.517Z,9.40
2018-03-24T19:21:45.031Z,9.30
2018-03-24T19:24:14.764Z,9.40
2018-03-24T19:26:43.759Z,9.30
2018-03-24T19:29:12.847Z,9.30
2018-03-24T19:31:42.798Z,9.40
2018-03-24T19:34:12.591Z,9.40
2018-03-24T19:36:41.664Z,9.40
2018-03-24T19:39:11.065Z,9.30
2018-03-24T19:41:40.452Z,9.30
2018-03-24T19:44:09.856Z,9.20
2018-03-24T19:46:39.650Z,9.20
2018-03-24T19:49:09.786Z,9.20
2018-03-24T19:51:39.523Z,9.20
2018-03-24T19:54:09.306Z,9.20
2018-03-24T19:56:39.138Z,9.20
2018-03-24T19:59:08.934Z,9.20
2018-03-24T20:01:38.711Z,9.20
2018-03-24T20:04:07.732Z,9.10
2018-03-24T20:06:37.530Z,9.10
2018-03-24T20:09:07.602Z,9.10
2018-03-24T20:11:36.656Z,9.10
2018-03-24T20:14:06.435Z,9.00
2018-03-24T20:16:35.399Z,9.00
2018-03-24T20:19:04.376Z,9.00
2018-03-24T20:21:34.185Z,8.90
2018-03-24T20:24:04.469Z,9.00
2018-03-24T20:26:33.684Z,9.00
2018-03-24T20:29:03.164Z,9.00
2018-03-24T20:31:32.195Z,9.10
2018-03-24T20:34:01.570Z,9.10
2018-03-24T20:36:31.363Z,9.10
2018-03-24T20:39:00.407Z,9.00
2018-03-24T20:41:29.905Z,9.00
2018-03-24T20:43:59.732Z,9.00
2018-03-24T20:46:28.725Z,9.10
2018-03-24T20:48:57.716Z,9.10
2018-03-24T20:51:26.744Z,9.00
2018-03-24T20:53:55.761Z,9.00
2018-03-24T20:56:24.729Z,9.00
2018-03-24T20:58:53.770Z,9.00
2018-03-24T21:01:23.517Z,9.00
2018-03-24T21:03:52.566Z,9.00
2018-03-24T21:06:22.330Z,9.00
2018-03-24T21:08:52.148Z,9.00
2018-03-24T21:11:21.630Z,9.00
2018-03-24T21:13:50.588Z,8.90
2018-03-24T21:16:19.999Z,8.90
2018-03-24T21:18:49.408Z,8.90
2018-03-24T21:21:19.231Z,8.90
2018-03-24T21:23:48.650Z,8.90
2018-03-24T21:26:17.721Z,8.90
2018-03-24T21:28:46.725Z,8.80
2018-03-24T21:31:16.492Z,8.80
2018-03-24T21:33:45.901Z,8.80
2018-03-24T21:36:15.698Z,8.80
2018-03-24T21:38:44.842Z,8.80
2018-03-24T21:41:14.195Z,8.80
2018-03-24T21:43:44.000Z,8.80
2018-03-24T21:46:15.267Z,8.80
2018-03-24T21:48:44.277Z,8.70
2018-03-24T21:51:13.659Z,8.70
2018-03-24T21:53:43.418Z,8.70
2018-03-24T21:56:12.408Z,8.60
2018-03-24T21:58:41.848Z,8.60
2018-03-24T22:01:12.332Z,8.60
2018-03-24T22:03:42.452Z,8.60
2018-03-24T22:06:11.466Z,8.60
2018-03-24T22:08:40.511Z,8.60
2018-03-24T22:11:09.583Z,8.60
2018-03-24T22:13:38.669Z,8.50
2018-03-24T22:16:08.070Z,8.50
2018-03-24T22:18:38.414Z,8.50
2018-03-24T22:21:07.386Z,8.50
2018-03-24T22:23:36.361Z,8.40
2018-03-24T22:26:06.285Z,8.40
2018-03-24T22:28:35.242Z,8.40
2018-03-24T22:31:04.573Z,8.40
2018-03-24T22:33:33.971Z,8.40
2018-03-24T22:36:03.718Z,8.40
2018-03-24T22:38:33.461Z,8.40
2018-03-24T22:41:02.434Z,8.40
2018-03-24T22:43:31.772Z,8.30
2018-03-24T22:46:03.316Z,8.30
2018-03-24T22:48:33.406Z,8.30
2018-03-24T22:51:02.376Z,8.30
2018-03-24T22:53:31.745Z,8.30
2018-03-24T22:56:00.713Z,8.30
2018-03-24T22:58:29.806Z,8.30
2018-03-24T23:00:59.513Z,8.30
2018-03-24T23:03:28.505Z,8.30
2018-03-24T23:05:57.447Z,8.30
2018-03-24T23:08:26.410Z,8.30
2018-03-24T23:10:55.858Z,8.30
2018-03-24T23:13:25.207Z,8.20
2018-03-24T23:15:54.946Z,8.10
2018-03-24T23:18:23.892Z,8.20
2018-03-24T23:20:53.699Z,8.10
2018-03-24T23:23:22.651Z,8.10
2018-03-24T23:25:52.007Z,8.20
2018-03-24T23:28:21.353Z,8.20
2018-03-24T23:30:51.111Z,8.20
2018-03-24T23:33:20.457Z,8.20
2018-03-24T23:35:49.441Z,8.20
2018-03-24T23:38:18.482Z,8.10
2018-03-24T23:40:48.195Z,8.10
2018-03-24T23:43:17.245Z,8.10
2018-03-24T23:45:47.013Z,8.20
2018-03-24T23:48:15.997Z,8.10
2018-03-24T23:50:46.085Z,8.10
2018-03-24T23:53:15.853Z,8.10
2018-03-24T23:55:45.598Z,8.10
2018-03-24T23:58:15.324Z,8.10
